sensor_id;sensor_type;location;lat;lon;timestamp;temperature;humidity
41437;DHT22;27178;49.460;10.850;2023-05-10T00:01:45;20.40;62.90
41437;DHT22;27178;49.460;10.850;2023-05-10T00:04:13;20.40;63.30
41437;DHT22;27178;49.460;10.850;2023-05-10T00:06:42;20.40;63.30
41437;DHT22;27178;49.460;10.850;2023-05-10T00:09:10;20.30;63.70
41437;DHT22;27178;49.460;10.850;2023-05-10T00:11:39;20.30;64.00
41437;DHT22;27178;49.460;10.850;2023-05-10T00:14:08;20.30;64.10
41437;DHT22;27178;49.460;10.850;2023-05-10T00:16:36;20.30;64.30
41437;DHT22;27178;49.460;10.850;2023-05-10T00:19:04;20.30;64.40
41437;DHT22;27178;49.460;10.850;2023-05-10T00:21:32;20.20;64.60
41437;DHT22;27178;49.460;10.850;2023-05-10T00:24:01;20.20;64.80
41437;DHT22;27178;49.460;10.850;2023-05-10T00:26:30;20.20;65.00
41437;DHT22;27178;49.460;10.850;2023-05-10T00:28:58;20.20;64.90
41437;DHT22;27178;49.460;10.850;2023-05-10T00:31:28;20.10;65.30
41437;DHT22;27178;49.460;10.850;2023-05-10T00:33:56;20.10;65.50
41437;DHT22;27178;49.460;10.850;2023-05-10T00:36:25;20.10;65.70
41437;DHT22;27178;49.460;10.850;2023-05-10T00:38:54;20.10;65.80
41437;DHT22;27178;49.460;10.850;2023-05-10T00:41:22;20.10;66.00
41437;DHT22;27178;49.460;10.850;2023-05-10T00:43:51;20.00;66.10
41437;DHT22;27178;49.460;10.850;2023-05-10T00:46:19;20.00;66.20
41437;DHT22;27178;49.460;10.850;2023-05-10T00:48:49;20.00;66.40
41437;DHT22;27178;49.460;10.850;2023-05-10T00:51:18;20.00;67.00
41437;DHT22;27178;49.460;10.850;2023-05-10T00:53:46;20.00;66.50
41437;DHT22;27178;49.460;10.850;2023-05-10T00:56:15;20.00;66.80
41437;DHT22;27178;49.460;10.850;2023-05-10T00:58:44;19.90;67.00
41437;DHT22;27178;49.460;10.850;2023-05-10T01:01:12;20.00;66.80
41437;DHT22;27178;49.460;10.850;2023-05-10T01:03:41;19.90;67.10
41437;DHT22;27178;49.460;10.850;2023-05-10T01:06:12;19.90;67.10
41437;DHT22;27178;49.460;10.850;2023-05-10T01:08:41;19.90;67.50
41437;DHT22;27178;49.460;10.850;2023-05-10T01:11:10;19.90;67.50
41437;DHT22;27178;49.460;10.850;2023-05-10T01:13:42;19.90;67.80
41437;DHT22;27178;49.460;10.850;2023-05-10T01:16:11;19.90;68.10
41437;DHT22;27178;49.460;10.850;2023-05-10T01:18:41;19.80;68.20
41437;DHT22;27178;49.460;10.850;2023-05-10T01:21:19;19.80;68.30
41437;DHT22;27178;49.460;10.850;2023-05-10T01:24:20;19.80;69.30
41437;DHT22;27178;49.460;10.850;2023-05-10T01:27:20;19.80;69.60
41437;DHT22;27178;49.460;10.850;2023-05-10T01:30:08;19.80;69.90
41437;DHT22;27178;49.460;10.850;2023-05-10T01:32:47;19.80;69.70
41437;DHT22;27178;49.460;10.850;2023-05-10T01:35:25;19.80;69.10
41437;DHT22;27178;49.460;10.850;2023-05-10T01:38:02;19.80;69.40
41437;DHT22;27178;49.460;10.850;2023-05-10T01:40:37;19.80;69.40
41437;DHT22;27178;49.460;10.850;2023-05-10T01:43:12;19.80;69.70
41437;DHT22;27178;49.460;10.850;2023-05-10T01:45:54;19.80;69.40
41437;DHT22;27178;49.460;10.850;2023-05-10T01:48:28;19.80;69.60
41437;DHT22;27178;49.460;10.850;2023-05-10T01:50:57;19.80;69.40
41437;DHT22;27178;49.460;10.850;2023-05-10T01:53:27;19.70;69.20
41437;DHT22;27178;49.460;10.850;2023-05-10T01:55:56;19.70;69.30
41437;DHT22;27178;49.460;10.850;2023-05-10T01:58:30;19.70;69.40
41437;DHT22;27178;49.460;10.850;2023-05-10T02:01:01;19.70;69.90
41437;DHT22;27178;49.460;10.850;2023-05-10T02:03:34;19.70;69.80
41437;DHT22;27178;49.460;10.850;2023-05-10T02:06:04;19.70;70.50
41437;DHT22;27178;49.460;10.850;2023-05-10T02:08:36;19.70;70.10
41437;DHT22;27178;49.460;10.850;2023-05-10T02:11:05;19.60;70.10
41437;DHT22;27178;49.460;10.850;2023-05-10T02:13:36;19.60;69.90
41437;DHT22;27178;49.460;10.850;2023-05-10T02:16:07;19.60;70.40
41437;DHT22;27178;49.460;10.850;2023-05-10T02:18:39;19.60;70.10
41437;DHT22;27178;49.460;10.850;2023-05-10T02:21:10;19.60;70.50
41437;DHT22;27178;49.460;10.850;2023-05-10T02:23:40;19.50;70.40
41437;DHT22;27178;49.460;10.850;2023-05-10T02:26:09;19.50;70.40
41437;DHT22;27178;49.460;10.850;2023-05-10T02:28:40;19.50;70.40
41437;DHT22;27178;49.460;10.850;2023-05-10T02:31:10;19.50;70.50
41437;DHT22;27178;49.460;10.850;2023-05-10T02:33:40;19.50;70.60
41437;DHT22;27178;49.460;10.850;2023-05-10T02:36:09;19.50;70.70
41437;DHT22;27178;49.460;10.850;2023-05-10T02:38:39;19.40;70.40
41437;DHT22;27178;49.460;10.850;2023-05-10T02:41:08;19.40;70.50
41437;DHT22;27178;49.460;10.850;2023-05-10T02:43:40;19.40;70.60
41437;DHT22;27178;49.460;10.850;2023-05-10T02:46:08;19.40;70.50
41437;DHT22;27178;49.460;10.850;2023-05-10T02:48:37;19.40;70.30
41437;DHT22;27178;49.460;10.850;2023-05-10T02:51:07;19.40;70.40
41437;DHT22;27178;49.460;10.850;2023-05-10T02:53:38;19.40;70.50
41437;DHT22;27178;49.460;10.850;2023-05-10T02:56:12;19.40;70.60
41437;DHT22;27178;49.460;10.850;2023-05-10T02:58:41;19.30;70.50
41437;DHT22;27178;49.460;10.850;2023-05-10T03:01:10;19.30;70.30
41437;DHT22;27178;49.460;10.850;2023-05-10T03:03:38;19.30;70.30
41437;DHT22;27178;49.460;10.850;2023-05-10T03:06:08;19.30;70.30
41437;DHT22;27178;49.460;10.850;2023-05-10T03:08:36;19.30;70.40
41437;DHT22;27178;49.460;10.850;2023-05-10T03:11:17;19.20;70.30
41437;DHT22;27178;49.460;10.850;2023-05-10T03:13:55;19.20;71.60
41437;DHT22;27178;49.460;10.850;2023-05-10T03:16:27;19.20;70.50
41437;DHT22;27178;49.460;10.850;2023-05-10T03:19:04;19.20;70.40
41437;DHT22;27178;49.460;10.850;2023-05-10T03:21:38;19.10;70.70
41437;DHT22;27178;49.460;10.850;2023-05-10T03:24:10;19.10;70.60
41437;DHT22;27178;49.460;10.850;2023-05-10T03:26:43;19.10;70.60
41437;DHT22;27178;49.460;10.850;2023-05-10T03:29:13;19.00;70.70
41437;DHT22;27178;49.460;10.850;2023-05-10T03:31:42;19.00;71.80
41437;DHT22;27178;49.460;10.850;2023-05-10T03:34:11;19.00;70.90
41437;DHT22;27178;49.460;10.850;2023-05-10T03:36:41;19.00;70.80
41437;DHT22;27178;49.460;10.850;2023-05-10T03:39:09;18.90;71.00
41437;DHT22;27178;49.460;10.850;2023-05-10T03:41:37;18.90;70.90
41437;DHT22;27178;49.460;10.850;2023-05-10T03:44:06;18.90;70.90
41437;DHT22;27178;49.460;10.850;2023-05-10T03:46:34;18.90;71.00
41437;DHT22;27178;49.460;10.850;2023-05-10T03:49:02;18.90;70.90
41437;DHT22;27178;49.460;10.850;2023-05-10T03:51:31;18.80;70.90
41437;DHT22;27178;49.460;10.850;2023-05-10T03:54:00;18.80;70.90
41437;DHT22;27178;49.460;10.850;2023-05-10T03:56:28;18.70;70.80
41437;DHT22;27178;49.460;10.850;2023-05-10T03:58:57;18.70;70.80
41437;DHT22;27178;49.460;10.850;2023-05-10T04:01:25;18.70;70.80
41437;DHT22;27178;49.460;10.850;2023-05-10T04:03:54;18.70;70.80
41437;DHT22;27178;49.460;10.850;2023-05-10T04:06:22;18.70;70.90
41437;DHT22;27178;49.460;10.850;2023-05-10T04:08:50;18.60;70.80
41437;DHT22;27178;49.460;10.850;2023-05-10T04:11:20;18.60;70.80
41437;DHT22;27178;49.460;10.850;2023-05-10T04:13:49;18.60;70.90
41437;DHT22;27178;49.460;10.850;2023-05-10T04:16:17;18.50;70.80
41437;DHT22;27178;49.460;10.850;2023-05-10T04:18:45;18.50;70.70
41437;DHT22;27178;49.460;10.850;2023-05-10T04:21:14;18.50;70.80
41437;DHT22;27178;49.460;10.850;2023-05-10T04:23:43;18.40;70.70
41437;DHT22;27178;49.460;10.850;2023-05-10T04:26:12;18.40;70.80
41437;DHT22;27178;49.460;10.850;2023-05-10T04:28:42;18.40;70.80
41437;DHT22;27178;49.460;10.850;2023-05-10T04:31:10;18.40;71.00
41437;DHT22;27178;49.460;10.850;2023-05-10T04:33:39;18.30;70.90
41437;DHT22;27178;49.460;10.850;2023-05-10T04:36:07;18.30;70.90
41437;DHT22;27178;49.460;10.850;2023-05-10T04:38:36;18.30;71.10
41437;DHT22;27178;49.460;10.850;2023-05-10T04:41:04;18.30;71.10
41437;DHT22;27178;49.460;10.850;2023-05-10T04:43:34;18.30;71.10
41437;DHT22;27178;49.460;10.850;2023-05-10T04:46:03;18.30;71.20
41437;DHT22;27178;49.460;10.850;2023-05-10T04:48:32;18.20;71.30
41437;DHT22;27178;49.460;10.850;2023-05-10T04:51:00;18.20;71.20
41437;DHT22;27178;49.460;10.850;2023-05-10T04:53:30;18.20;71.10
41437;DHT22;27178;49.460;10.850;2023-05-10T04:55:59;18.20;71.10
41437;DHT22;27178;49.460;10.850;2023-05-10T04:58:27;18.20;71.00
41437;DHT22;27178;49.460;10.850;2023-05-10T05:00:55;18.20;71.00
41437;DHT22;27178;49.460;10.850;2023-05-10T05:03:25;18.20;71.00
41437;DHT22;27178;49.460;10.850;2023-05-10T05:05:53;18.20;71.10
41437;DHT22;27178;49.460;10.850;2023-05-10T05:08:22;18.10;71.00
41437;DHT22;27178;49.460;10.850;2023-05-10T05:10:50;18.10;71.00
41437;DHT22;27178;49.460;10.850;2023-05-10T05:13:19;18.10;71.10
41437;DHT22;27178;49.460;10.850;2023-05-10T05:15:47;18.10;71.20
41437;DHT22;27178;49.460;10.850;2023-05-10T05:18:16;18.10;71.30
41437;DHT22;27178;49.460;10.850;2023-05-10T05:20:45;18.10;71.30
41437;DHT22;27178;49.460;10.850;2023-05-10T05:23:14;18.10;71.30
41437;DHT22;27178;49.460;10.850;2023-05-10T05:25:42;18.10;71.30
41437;DHT22;27178;49.460;10.850;2023-05-10T05:28:10;18.10;71.20
41437;DHT22;27178;49.460;10.850;2023-05-10T05:30:39;18.10;71.30
41437;DHT22;27178;49.460;10.850;2023-05-10T05:33:07;18.10;71.30
41437;DHT22;27178;49.460;10.850;2023-05-10T05:35:35;18.10;71.50
41437;DHT22;27178;49.460;10.850;2023-05-10T05:38:05;18.10;71.60
41437;DHT22;27178;49.460;10.850;2023-05-10T05:40:33;18.10;71.70
41437;DHT22;27178;49.460;10.850;2023-05-10T05:43:01;18.10;71.70
41437;DHT22;27178;49.460;10.850;2023-05-10T05:45:30;18.10;71.90
41437;DHT22;27178;49.460;10.850;2023-05-10T05:47:58;18.10;71.90
41437;DHT22;27178;49.460;10.850;2023-05-10T05:50:27;18.10;71.80
41437;DHT22;27178;49.460;10.850;2023-05-10T05:52:56;18.20;71.90
41437;DHT22;27178;49.460;10.850;2023-05-10T05:55:26;18.20;71.90
41437;DHT22;27178;49.460;10.850;2023-05-10T05:57:54;18.20;72.00
41437;DHT22;27178;49.460;10.850;2023-05-10T06:00:22;18.20;71.90
41437;DHT22;27178;49.460;10.850;2023-05-10T06:02:50;18.20;71.90
41437;DHT22;27178;49.460;10.850;2023-05-10T06:05:19;18.20;71.90
41437;DHT22;27178;49.460;10.850;2023-05-10T06:07:48;18.10;71.90
41437;DHT22;27178;49.460;10.850;2023-05-10T06:10:17;18.20;71.90
41437;DHT22;27178;49.460;10.850;2023-05-10T06:12:47;18.20;71.90
41437;DHT22;27178;49.460;10.850;2023-05-10T06:15:15;18.20;71.80
41437;DHT22;27178;49.460;10.850;2023-05-10T06:17:43;18.20;72.70
41437;DHT22;27178;49.460;10.850;2023-05-10T06:20:13;18.20;71.80
41437;DHT22;27178;49.460;10.850;2023-05-10T06:22:41;18.20;71.80
41437;DHT22;27178;49.460;10.850;2023-05-10T06:25:09;18.20;72.00
41437;DHT22;27178;49.460;10.850;2023-05-10T06:27:38;18.30;72.10
41437;DHT22;27178;49.460;10.850;2023-05-10T06:30:10;18.30;72.10
41437;DHT22;27178;49.460;10.850;2023-05-10T06:32:40;18.30;72.20
41437;DHT22;27178;49.460;10.850;2023-05-10T06:35:11;18.30;72.00
41437;DHT22;27178;49.460;10.850;2023-05-10T06:37:39;18.30;71.90
41437;DHT22;27178;49.460;10.850;2023-05-10T06:40:08;18.40;71.90
41437;DHT22;27178;49.460;10.850;2023-05-10T06:42:36;18.40;71.90
41437;DHT22;27178;49.460;10.850;2023-05-10T06:45:06;18.40;71.90
41437;DHT22;27178;49.460;10.850;2023-05-10T06:47:37;18.40;71.70
41437;DHT22;27178;49.460;10.850;2023-05-10T06:50:06;18.40;71.70
41437;DHT22;27178;49.460;10.850;2023-05-10T06:52:35;18.50;71.70
41437;DHT22;27178;49.460;10.850;2023-05-10T06:55:04;18.50;71.70
41437;DHT22;27178;49.460;10.850;2023-05-10T06:57:32;18.50;71.80
41437;DHT22;27178;49.460;10.850;2023-05-10T07:00:01;18.50;71.80
41437;DHT22;27178;49.460;10.850;2023-05-10T07:02:32;18.60;71.90
41437;DHT22;27178;49.460;10.850;2023-05-10T07:05:02;18.60;71.80
41437;DHT22;27178;49.460;10.850;2023-05-10T07:07:30;18.60;71.50
41437;DHT22;27178;49.460;10.850;2023-05-10T07:09:58;18.60;71.50
41437;DHT22;27178;49.460;10.850;2023-05-10T07:12:27;18.70;71.50
41437;DHT22;27178;49.460;10.850;2023-05-10T07:14:55;18.70;71.40
41437;DHT22;27178;49.460;10.850;2023-05-10T07:17:24;18.70;71.30
41437;DHT22;27178;49.460;10.850;2023-05-10T07:19:52;18.70;71.20
41437;DHT22;27178;49.460;10.850;2023-05-10T07:22:22;18.70;71.00
41437;DHT22;27178;49.460;10.850;2023-05-10T07:24:50;18.80;71.20
41437;DHT22;27178;49.460;10.850;2023-05-10T07:27:18;18.80;71.00
41437;DHT22;27178;49.460;10.850;2023-05-10T07:29:47;18.80;71.00
41437;DHT22;27178;49.460;10.850;2023-05-10T07:32:15;18.80;70.80
41437;DHT22;27178;49.460;10.850;2023-05-10T07:34:43;18.80;70.80
41437;DHT22;27178;49.460;10.850;2023-05-10T07:37:11;18.80;70.80
41437;DHT22;27178;49.460;10.850;2023-05-10T07:39:41;18.80;70.80
41437;DHT22;27178;49.460;10.850;2023-05-10T07:42:09;18.80;70.80
41437;DHT22;27178;49.460;10.850;2023-05-10T07:44:39;18.80;70.80
41437;DHT22;27178;49.460;10.850;2023-05-10T07:47:08;18.80;70.80
41437;DHT22;27178;49.460;10.850;2023-05-10T07:49:36;18.80;70.60
41437;DHT22;27178;49.460;10.850;2023-05-10T07:52:05;18.80;70.50
41437;DHT22;27178;49.460;10.850;2023-05-10T07:54:33;18.80;70.60
41437;DHT22;27178;49.460;10.850;2023-05-10T07:57:03;18.80;70.50
41437;DHT22;27178;49.460;10.850;2023-05-10T07:59:32;18.80;70.60
41437;DHT22;27178;49.460;10.850;2023-05-10T08:02:00;19.50;70.90
41437;DHT22;27178;49.460;10.850;2023-05-10T08:04:29;18.80;70.40
41437;DHT22;27178;49.460;10.850;2023-05-10T08:06:57;18.90;70.50
41437;DHT22;27178;49.460;10.850;2023-05-10T08:09:26;18.90;70.50
41437;DHT22;27178;49.460;10.850;2023-05-10T08:11:54;18.90;70.40
41437;DHT22;27178;49.460;10.850;2023-05-10T08:14:24;18.90;70.40
41437;DHT22;27178;49.460;10.850;2023-05-10T08:16:52;19.00;70.50
41437;DHT22;27178;49.460;10.850;2023-05-10T08:19:20;19.00;70.40
41437;DHT22;27178;49.460;10.850;2023-05-10T08:21:49;19.10;70.30
41437;DHT22;27178;49.460;10.850;2023-05-10T08:24:18;19.10;71.00
41437;DHT22;27178;49.460;10.850;2023-05-10T08:26:46;19.10;70.00
41437;DHT22;27178;49.460;10.850;2023-05-10T08:29:15;19.10;69.80
41437;DHT22;27178;49.460;10.850;2023-05-10T08:31:45;19.20;69.80
41437;DHT22;27178;49.460;10.850;2023-05-10T08:34:14;19.20;69.80
41437;DHT22;27178;49.460;10.850;2023-05-10T08:36:42;19.20;70.00
41437;DHT22;27178;49.460;10.850;2023-05-10T08:39:10;19.10;70.00
41437;DHT22;27178;49.460;10.850;2023-05-10T08:41:58;19.10;70.10
41437;DHT22;27178;49.460;10.850;2023-05-10T08:44:29;19.10;70.10
41437;DHT22;27178;49.460;10.850;2023-05-10T08:47:04;19.00;70.10
41437;DHT22;27178;49.460;10.850;2023-05-10T08:49:33;19.00;70.20
41437;DHT22;27178;49.460;10.850;2023-05-10T08:52:03;19.00;70.10
41437;DHT22;27178;49.460;10.850;2023-05-10T08:54:32;18.90;70.20
41437;DHT22;27178;49.460;10.850;2023-05-10T08:57:01;18.90;70.30
41437;DHT22;27178;49.460;10.850;2023-05-10T08:59:30;18.90;70.40
41437;DHT22;27178;49.460;10.850;2023-05-10T09:02:00;18.90;70.50
41437;DHT22;27178;49.460;10.850;2023-05-10T09:04:29;18.90;70.70
41437;DHT22;27178;49.460;10.850;2023-05-10T09:06:58;18.90;70.60
41437;DHT22;27178;49.460;10.850;2023-05-10T09:09:27;19.00;70.90
41437;DHT22;27178;49.460;10.850;2023-05-10T09:11:55;19.00;70.80
41437;DHT22;27178;49.460;10.850;2023-05-10T09:14:25;19.00;71.70
41437;DHT22;27178;49.460;10.850;2023-05-10T09:16:54;19.10;70.80
41437;DHT22;27178;49.460;10.850;2023-05-10T09:19:23;19.10;70.30
41437;DHT22;27178;49.460;10.850;2023-05-10T09:21:52;19.20;69.90
41437;DHT22;27178;49.460;10.850;2023-05-10T09:24:25;19.20;69.60
41437;DHT22;27178;49.460;10.850;2023-05-10T09:26:53;19.20;69.60
41437;DHT22;27178;49.460;10.850;2023-05-10T09:29:22;19.20;69.60
41437;DHT22;27178;49.460;10.850;2023-05-10T09:31:51;19.30;69.40
41437;DHT22;27178;49.460;10.850;2023-05-10T09:34:30;19.40;69.50
41437;DHT22;27178;49.460;10.850;2023-05-10T09:37:01;19.40;69.40
41437;DHT22;27178;49.460;10.850;2023-05-10T09:39:31;19.50;69.20
41437;DHT22;27178;49.460;10.850;2023-05-10T09:42:02;19.50;69.70
41437;DHT22;27178;49.460;10.850;2023-05-10T09:44:31;19.60;68.60
41437;DHT22;27178;49.460;10.850;2023-05-10T09:47:01;19.60;68.40
41437;DHT22;27178;49.460;10.850;2023-05-10T09:49:30;19.60;68.20
41437;DHT22;27178;49.460;10.850;2023-05-10T09:52:01;19.70;68.20
41437;DHT22;27178;49.460;10.850;2023-05-10T09:54:31;19.70;68.10
41437;DHT22;27178;49.460;10.850;2023-05-10T09:56:59;19.70;67.90
41437;DHT22;27178;49.460;10.850;2023-05-10T09:59:28;19.80;67.90
41437;DHT22;27178;49.460;10.850;2023-05-10T10:01:58;19.80;68.00
41437;DHT22;27178;49.460;10.850;2023-05-10T10:04:28;19.90;67.70
41437;DHT22;27178;49.460;10.850;2023-05-10T10:07:02;19.90;67.50
41437;DHT22;27178;49.460;10.850;2023-05-10T10:09:31;20.00;67.00
41437;DHT22;27178;49.460;10.850;2023-05-10T10:11:59;20.00;66.90
41437;DHT22;27178;49.460;10.850;2023-05-10T10:14:29;20.00;66.60
41437;DHT22;27178;49.460;10.850;2023-05-10T10:17:00;20.00;66.10
41437;DHT22;27178;49.460;10.850;2023-05-10T10:19:34;20.00;65.90
41437;DHT22;27178;49.460;10.850;2023-05-10T10:22:05;20.00;65.90
41437;DHT22;27178;49.460;10.850;2023-05-10T10:24:34;20.00;65.80
41437;DHT22;27178;49.460;10.850;2023-05-10T10:27:20;20.00;65.70
41437;DHT22;27178;49.460;10.850;2023-05-10T10:29:59;20.00;65.50
41437;DHT22;27178;49.460;10.850;2023-05-10T10:32:38;20.00;65.40
41437;DHT22;27178;49.460;10.850;2023-05-10T10:35:11;20.00;65.30
41437;DHT22;27178;49.460;10.850;2023-05-10T10:37:45;20.00;65.60
41437;DHT22;27178;49.460;10.850;2023-05-10T10:40:25;20.00;65.50
41437;DHT22;27178;49.460;10.850;2023-05-10T10:42:54;20.00;65.10
41437;DHT22;27178;49.460;10.850;2023-05-10T10:45:24;20.00;65.70
41437;DHT22;27178;49.460;10.850;2023-05-10T10:48:21;20.00;65.70
41437;DHT22;27178;49.460;10.850;2023-05-10T10:50:56;20.00;65.50
41437;DHT22;27178;49.460;10.850;2023-05-10T10:53:27;20.00;65.80
41437;DHT22;27178;49.460;10.850;2023-05-10T10:56:05;20.00;66.00
41437;DHT22;27178;49.460;10.850;2023-05-10T10:58:35;20.10;66.00
41437;DHT22;27178;49.460;10.850;2023-05-10T11:01:15;20.10;66.10
41437;DHT22;27178;49.460;10.850;2023-05-10T11:04:17;20.20;65.90
41437;DHT22;27178;49.460;10.850;2023-05-10T11:06:46;20.20;65.90
41437;DHT22;27178;49.460;10.850;2023-05-10T11:09:16;20.30;65.90
41437;DHT22;27178;49.460;10.850;2023-05-10T11:11:49;20.30;65.80
41437;DHT22;27178;49.460;10.850;2023-05-10T11:14:20;20.30;65.70
41437;DHT22;27178;49.460;10.850;2023-05-10T11:16:49;20.30;66.40
41437;DHT22;27178;49.460;10.850;2023-05-10T11:19:18;20.30;65.40
41437;DHT22;27178;49.460;10.850;2023-05-10T11:21:48;20.30;65.30
41437;DHT22;27178;49.460;10.850;2023-05-10T11:24:20;20.30;65.30
41437;DHT22;27178;49.460;10.850;2023-05-10T11:26:50;20.20;65.30
41437;DHT22;27178;49.460;10.850;2023-05-10T11:29:19;20.20;65.30
41437;DHT22;27178;49.460;10.850;2023-05-10T11:31:48;20.20;65.40
41437;DHT22;27178;49.460;10.850;2023-05-10T11:34:24;20.20;65.50
41437;DHT22;27178;49.460;10.850;2023-05-10T11:36:53;20.20;65.50
41437;DHT22;27178;49.460;10.850;2023-05-10T11:39:26;20.20;65.60
41437;DHT22;27178;49.460;10.850;2023-05-10T11:41:55;20.30;65.70
41437;DHT22;27178;49.460;10.850;2023-05-10T11:44:29;20.20;65.70
41437;DHT22;27178;49.460;10.850;2023-05-10T11:46:58;20.30;65.80
41437;DHT22;27178;49.460;10.850;2023-05-10T11:49:27;20.30;65.70
41437;DHT22;27178;49.460;10.850;2023-05-10T11:52:04;20.40;65.50
41437;DHT22;27178;49.460;10.850;2023-05-10T11:54:34;20.40;65.30
41437;DHT22;27178;49.460;10.850;2023-05-10T11:57:03;20.40;65.20
41437;DHT22;27178;49.460;10.850;2023-05-10T11:59:31;20.50;65.10
41437;DHT22;27178;49.460;10.850;2023-05-10T12:02:00;20.50;64.30
41437;DHT22;27178;49.460;10.850;2023-05-10T12:04:28;20.60;64.40
41437;DHT22;27178;49.460;10.850;2023-05-10T12:06:57;20.60;64.10
41437;DHT22;27178;49.460;10.850;2023-05-10T12:09:26;20.70;64.00
41437;DHT22;27178;49.460;10.850;2023-05-10T12:12:15;20.70;63.80
41437;DHT22;27178;49.460;10.850;2023-05-10T12:14:48;20.70;63.40
41437;DHT22;27178;49.460;10.850;2023-05-10T12:17:16;20.70;63.30
41437;DHT22;27178;49.460;10.850;2023-05-10T12:19:45;20.70;63.40
41437;DHT22;27178;49.460;10.850;2023-05-10T12:22:14;20.80;63.40
41437;DHT22;27178;49.460;10.850;2023-05-10T12:24:42;20.80;63.30
41437;DHT22;27178;49.460;10.850;2023-05-10T12:27:14;20.80;63.10
41437;DHT22;27178;49.460;10.850;2023-05-10T12:29:43;20.90;63.10
41437;DHT22;27178;49.460;10.850;2023-05-10T12:32:11;20.90;63.10
41437;DHT22;27178;49.460;10.850;2023-05-10T12:34:40;21.00;63.00
41437;DHT22;27178;49.460;10.850;2023-05-10T12:37:08;21.00;63.20
41437;DHT22;27178;49.460;10.850;2023-05-10T12:39:40;21.10;63.20
41437;DHT22;27178;49.460;10.850;2023-05-10T12:42:08;21.10;63.00
41437;DHT22;27178;49.460;10.850;2023-05-10T12:44:39;21.20;63.00
41437;DHT22;27178;49.460;10.850;2023-05-10T12:47:07;21.20;62.80
41437;DHT22;27178;49.460;10.850;2023-05-10T12:49:35;21.30;62.60
41437;DHT22;27178;49.460;10.850;2023-05-10T12:52:04;21.30;62.30
41437;DHT22;27178;49.460;10.850;2023-05-10T12:54:32;21.40;62.10
41437;DHT22;27178;49.460;10.850;2023-05-10T12:57:01;21.40;61.90
41437;DHT22;27178;49.460;10.850;2023-05-10T12:59:29;21.40;61.90
41437;DHT22;27178;49.460;10.850;2023-05-10T13:01:59;21.40;61.70
41437;DHT22;27178;49.460;10.850;2023-05-10T13:04:28;21.40;61.40
41437;DHT22;27178;49.460;10.850;2023-05-10T13:06:56;21.50;61.30
41437;DHT22;27178;49.460;10.850;2023-05-10T13:09:26;21.50;61.10
41437;DHT22;27178;49.460;10.850;2023-05-10T13:11:56;21.50;61.00
41437;DHT22;27178;49.460;10.850;2023-05-10T13:14:26;21.50;61.00
41437;DHT22;27178;49.460;10.850;2023-05-10T13:16:54;21.50;60.80
41437;DHT22;27178;49.460;10.850;2023-05-10T13:19:24;21.50;60.60
41437;DHT22;27178;49.460;10.850;2023-05-10T13:21:52;21.50;60.40
41437;DHT22;27178;49.460;10.850;2023-05-10T13:24:21;21.50;60.40
41437;DHT22;27178;49.460;10.850;2023-05-10T13:26:49;21.50;60.30
41437;DHT22;27178;49.460;10.850;2023-05-10T13:29:17;21.50;60.20
41437;DHT22;27178;49.460;10.850;2023-05-10T13:31:46;21.40;60.20
41437;DHT22;27178;49.460;10.850;2023-05-10T13:34:14;21.40;60.10
41437;DHT22;27178;49.460;10.850;2023-05-10T13:36:44;21.40;61.20
41437;DHT22;27178;49.460;10.850;2023-05-10T13:39:13;21.40;60.30
41437;DHT22;27178;49.460;10.850;2023-05-10T13:41:41;21.40;60.20
41437;DHT22;27178;49.460;10.850;2023-05-10T13:44:12;21.30;60.30
41437;DHT22;27178;49.460;10.850;2023-05-10T13:46:41;21.30;60.50
41437;DHT22;27178;49.460;10.850;2023-05-10T13:49:09;21.20;60.60
41437;DHT22;27178;49.460;10.850;2023-05-10T13:51:38;21.20;60.80
41437;DHT22;27178;49.460;10.850;2023-05-10T13:54:08;21.20;61.00
41437;DHT22;27178;49.460;10.850;2023-05-10T13:56:39;21.20;61.20
41437;DHT22;27178;49.460;10.850;2023-05-10T13:59:08;21.10;61.30
41437;DHT22;27178;49.460;10.850;2023-05-10T14:01:36;21.10;61.50
41437;DHT22;27178;49.460;10.850;2023-05-10T14:04:05;21.10;61.50
41437;DHT22;27178;49.460;10.850;2023-05-10T14:06:33;21.10;61.50
41437;DHT22;27178;49.460;10.850;2023-05-10T14:09:02;21.10;61.50
41437;DHT22;27178;49.460;10.850;2023-05-10T14:11:32;21.10;61.60
41437;DHT22;27178;49.460;10.850;2023-05-10T14:14:01;21.10;61.70
41437;DHT22;27178;49.460;10.850;2023-05-10T14:16:30;21.10;61.70
41437;DHT22;27178;49.460;10.850;2023-05-10T14:18:59;21.10;61.70
41437;DHT22;27178;49.460;10.850;2023-05-10T14:21:27;21.10;61.70
41437;DHT22;27178;49.460;10.850;2023-05-10T14:23:56;21.10;61.90
41437;DHT22;27178;49.460;10.850;2023-05-10T14:26:24;21.10;62.10
41437;DHT22;27178;49.460;10.850;2023-05-10T14:28:54;21.10;62.00
41437;DHT22;27178;49.460;10.850;2023-05-10T14:31:23;21.10;62.20
41437;DHT22;27178;49.460;10.850;2023-05-10T14:33:52;21.00;62.10
41437;DHT22;27178;49.460;10.850;2023-05-10T14:36:21;21.00;61.90
41437;DHT22;27178;49.460;10.850;2023-05-10T14:38:49;21.00;61.90
41437;DHT22;27178;49.460;10.850;2023-05-10T14:41:18;21.00;61.70
41437;DHT22;27178;49.460;10.850;2023-05-10T14:43:46;21.00;61.70
41437;DHT22;27178;49.460;10.850;2023-05-10T14:46:16;20.90;61.80
41437;DHT22;27178;49.460;10.850;2023-05-10T14:48:44;19.50;61.10
41437;DHT22;27178;49.460;10.850;2023-05-10T14:51:13;20.80;61.70
41437;DHT22;27178;49.460;10.850;2023-05-10T14:53:42;20.80;61.60
41437;DHT22;27178;49.460;10.850;2023-05-10T14:56:11;20.70;61.40
41437;DHT22;27178;49.460;10.850;2023-05-10T14:58:39;20.70;61.20
41437;DHT22;27178;49.460;10.850;2023-05-10T15:01:07;20.60;61.10
41437;DHT22;27178;49.460;10.850;2023-05-10T15:03:38;20.50;61.10
41437;DHT22;27178;49.460;10.850;2023-05-10T15:06:08;20.50;61.10
41437;DHT22;27178;49.460;10.850;2023-05-10T15:08:37;20.40;61.30
41437;DHT22;27178;49.460;10.850;2023-05-10T15:11:05;20.40;61.30
41437;DHT22;27178;49.460;10.850;2023-05-10T15:13:33;20.30;61.10
41437;DHT22;27178;49.460;10.850;2023-05-10T15:16:02;20.30;61.30
41437;DHT22;27178;49.460;10.850;2023-05-10T15:18:30;20.20;61.40
41437;DHT22;27178;49.460;10.850;2023-05-10T15:21:00;20.20;61.40
41437;DHT22;27178;49.460;10.850;2023-05-10T15:23:28;20.10;61.40
41437;DHT22;27178;49.460;10.850;2023-05-10T15:25:57;20.10;61.50
41437;DHT22;27178;49.460;10.850;2023-05-10T15:28:26;20.00;61.50
41437;DHT22;27178;49.460;10.850;2023-05-10T15:30:54;20.00;61.60
41437;DHT22;27178;49.460;10.850;2023-05-10T15:33:23;20.00;61.60